sensor_id;sensor_type;location;lat;lon;timestamp;P1;durP1;ratioP1;P2;durP2;ratioP2
54845;SDS011;53889;50.084;8.646;2022-09-16T00:00:30;4.63;;;1.23;;
54845;SDS011;53889;50.084;8.646;2022-09-16T00:02:58;3.95;;;1.20;;
54845;SDS011;53889;50.084;8.646;2022-09-16T00:05:25;3.28;;;1.40;;
54845;SDS011;53889;50.084;8.646;2022-09-16T00:07:52;2.65;;;1.27;;
54845;SDS011;53889;50.084;8.646;2022-09-16T00:10:19;5.07;;;1.20;;
54845;SDS011;53889;50.084;8.646;2022-09-16T00:12:46;2.72;;;1.30;;
54845;SDS011;53889;50.084;8.646;2022-09-16T00:15:13;4.28;;;1.48;;
54845;SDS011;53889;50.084;8.646;2022-09-16T00:17:41;4.32;;;1.30;;
54845;SDS011;53889;50.084;8.646;2022-09-16T00:20:12;4.43;;;1.15;;
54845;SDS011;53889;50.084;8.646;2022-09-16T00:22:38;5.10;;;1.30;;
54845;SDS011;53889;50.084;8.646;2022-09-16T00:25:06;3.50;;;1.42;;
54845;SDS011;53889;50.084;8.646;2022-09-16T00:27:33;5.38;;;1.73;;
54845;SDS011;53889;50.084;8.646;2022-09-16T00:30:00;3.72;;;1.20;;
54845;SDS011;53889;50.084;8.646;2022-09-16T00:32:26;4.22;;;1.20;;
54845;SDS011;53889;50.084;8.646;2022-09-16T00:34:54;4.50;;;1.05;;
54845;SDS011;53889;50.084;8.646;2022-09-16T00:37:21;4.70;;;1.20;;
54845;SDS011;53889;50.084;8.646;2022-09-16T00:39:48;4.85;;;1.20;;
54845;SDS011;53889;50.084;8.646;2022-09-16T00:42:15;3.03;;;1.17;;
54845;SDS011;53889;50.084;8.646;2022-09-16T00:44:56;4.18;;;1.13;;
54845;SDS011;53889;50.084;8.646;2022-09-16T00:47:26;4.35;;;1.27;;
54845;SDS011;53889;50.084;8.646;2022-09-16T00:49:58;6.38;;;1.40;;
54845;SDS011;53889;50.084;8.646;2022-09-16T00:52:31;3.35;;;1.27;;
54845;SDS011;53889;50.084;8.646;2022-09-16T00:54:58;3.83;;;1.25;;
54845;SDS011;53889;50.084;8.646;2022-09-16T00:57:29;3.70;;;1.20;;
54845;SDS011;53889;50.084;8.646;2022-09-16T00:59:55;3.60;;;1.10;;
54845;SDS011;53889;50.084;8.646;2022-09-16T01:02:24;3.65;;;1.30;;
54845;SDS011;53889;50.084;8.646;2022-09-16T01:04:53;3.53;;;1.02;;
54845;SDS011;53889;50.084;8.646;2022-09-16T01:07:27;4.25;;;1.10;;
54845;SDS011;53889;50.084;8.646;2022-09-16T01:09:57;3.90;;;1.10;;
54845;SDS011;53889;50.084;8.646;2022-09-16T01:12:25;5.78;;;1.27;;
54845;SDS011;53889;50.084;8.646;2022-09-16T01:14:58;2.60;;;0.98;;
54845;SDS011;53889;50.084;8.646;2022-09-16T01:17:27;5.45;;;0.95;;
54845;SDS011;53889;50.084;8.646;2022-09-16T01:23:34;3.95;;;1.55;;
54845;SDS011;53889;50.084;8.646;2022-09-16T01:26:17;4.18;;;0.95;;
54845;SDS011;53889;50.084;8.646;2022-09-16T01:29:03;3.42;;;1.15;;
54845;SDS011;53889;50.084;8.646;2022-09-16T01:31:43;3.17;;;1.15;;
54845;SDS011;53889;50.084;8.646;2022-09-16T01:34:21;3.58;;;1.20;;
54845;SDS011;53889;50.084;8.646;2022-09-16T01:36:54;6.68;;;1.15;;
54845;SDS011;53889;50.084;8.646;2022-09-16T01:39:29;2.83;;;1.40;;
54845;SDS011;53889;50.084;8.646;2022-09-16T01:42:13;2.60;;;1.10;;
54845;SDS011;53889;50.084;8.646;2022-09-16T01:44:46;3.50;;;1.10;;
54845;SDS011;53889;50.084;8.646;2022-09-16T01:47:23;4.30;;;1.30;;
54845;SDS011;53889;50.084;8.646;2022-09-16T01:49:59;4.55;;;1.13;;
54845;SDS011;53889;50.084;8.646;2022-09-16T01:52:36;5.55;;;0.95;;
54845;SDS011;53889;50.084;8.646;2022-09-16T01:55:11;4.25;;;1.20;;
54845;SDS011;53889;50.084;8.646;2022-09-16T02:00:13;3.72;;;1.13;;
54845;SDS011;53889;50.084;8.646;2022-09-16T02:02:43;4.07;;;0.90;;
54845;SDS011;53889;50.084;8.646;2022-09-16T02:05:13;3.17;;;0.90;;
54845;SDS011;53889;50.084;8.646;2022-09-16T02:07:44;3.45;;;0.90;;
54845;SDS011;53889;50.084;8.646;2022-09-16T02:10:17;3.65;;;1.00;;
54845;SDS011;53889;50.084;8.646;2022-09-16T02:12:48;3.17;;;0.90;;
54845;SDS011;53889;50.084;8.646;2022-09-16T02:15:19;3.03;;;1.10;;
54845;SDS011;53889;50.084;8.646;2022-09-16T02:17:51;6.65;;;1.00;;
54845;SDS011;53889;50.084;8.646;2022-09-16T02:20:24;3.78;;;1.00;;
54845;SDS011;53889;50.084;8.646;2022-09-16T02:22:54;3.40;;;0.98;;
54845;SDS011;53889;50.084;8.646;2022-09-16T02:25:25;3.40;;;1.10;;
54845;SDS011;53889;50.084;8.646;2022-09-16T02:27:53;4.65;;;1.30;;
54845;SDS011;53889;50.084;8.646;2022-09-16T02:30:21;4.40;;;1.35;;
54845;SDS011;53889;50.084;8.646;2022-09-16T02:32:49;4.68;;;1.13;;
54845;SDS011;53889;50.084;8.646;2022-09-16T02:35:21;5.60;;;1.40;;
54845;SDS011;53889;50.084;8.646;2022-09-16T02:37:52;7.55;;;1.40;;
54845;SDS011;53889;50.084;8.646;2022-09-16T02:40:23;5.55;;;1.60;;
54845;SDS011;53889;50.084;8.646;2022-09-16T02:42:53;5.00;;;1.17;;
54845;SDS011;53889;50.084;8.646;2022-09-16T02:45:20;4.55;;;0.98;;
54845;SDS011;53889;50.084;8.646;2022-09-16T02:47:53;3.72;;;1.08;;
54845;SDS011;53889;50.084;8.646;2022-09-16T02:50:28;3.88;;;0.98;;
54845;SDS011;53889;50.084;8.646;2022-09-16T02:53:03;3.53;;;0.88;;
54845;SDS011;53889;50.084;8.646;2022-09-16T02:55:37;4.33;;;1.10;;
54845;SDS011;53889;50.084;8.646;2022-09-16T02:58:11;3.97;;;1.10;;
54845;SDS011;53889;50.084;8.646;2022-09-16T03:00:40;3.00;;;1.15;;
54845;SDS011;53889;50.084;8.646;2022-09-16T03:03:12;3.20;;;1.15;;
54845;SDS011;53889;50.084;8.646;2022-09-16T03:05:48;4.90;;;1.13;;
54845;SDS011;53889;50.084;8.646;2022-09-16T03:08:35;4.00;;;0.97;;
54845;SDS011;53889;50.084;8.646;2022-09-16T03:11:05;5.03;;;1.05;;
54845;SDS011;53889;50.084;8.646;2022-09-16T03:13:37;3.38;;;1.10;;
54845;SDS011;53889;50.084;8.646;2022-09-16T03:16:14;3.97;;;1.17;;
54845;SDS011;53889;50.084;8.646;2022-09-16T03:18:52;6.87;;;1.00;;
54845;SDS011;53889;50.084;8.646;2022-09-16T03:21:24;4.15;;;1.00;;
54845;SDS011;53889;50.084;8.646;2022-09-16T03:24:00;4.47;;;1.00;;
54845;SDS011;53889;50.084;8.646;2022-09-16T03:26:35;6.00;;;1.10;;
54845;SDS011;53889;50.084;8.646;2022-09-16T03:29:11;3.60;;;1.10;;
54845;SDS011;53889;50.084;8.646;2022-09-16T03:31:45;4.82;;;1.10;;
54845;SDS011;53889;50.084;8.646;2022-09-16T03:34:18;4.70;;;1.20;;
54845;SDS011;53889;50.084;8.646;2022-09-16T03:36:50;4.80;;;1.10;;
54845;SDS011;53889;50.084;8.646;2022-09-16T03:39:19;3.55;;;1.33;;
54845;SDS011;53889;50.084;8.646;2022-09-16T03:41:47;6.65;;;1.27;;
54845;SDS011;53889;50.084;8.646;2022-09-16T03:44:14;4.57;;;1.10;;
54845;SDS011;53889;50.084;8.646;2022-09-16T03:46:41;4.43;;;1.30;;
54845;SDS011;53889;50.084;8.646;2022-09-16T03:49:07;6.10;;;1.20;;
54845;SDS011;53889;50.084;8.646;2022-09-16T03:51:36;3.35;;;1.00;;
54845;SDS011;53889;50.084;8.646;2022-09-16T03:54:02;3.33;;;1.20;;
54845;SDS011;53889;50.084;8.646;2022-09-16T03:56:29;4.50;;;1.25;;
54845;SDS011;53889;50.084;8.646;2022-09-16T03:58:56;4.50;;;1.20;;
54845;SDS011;53889;50.084;8.646;2022-09-16T04:01:23;7.68;;;1.35;;
54845;SDS011;53889;50.084;8.646;2022-09-16T04:03:49;3.90;;;1.10;;
54845;SDS011;53889;50.084;8.646;2022-09-16T04:06:17;4.22;;;1.20;;
54845;SDS011;53889;50.084;8.646;2022-09-16T04:08:45;4.72;;;1.23;;
54845;SDS011;53889;50.084;8.646;2022-09-16T04:11:14;4.53;;;1.30;;
54845;SDS011;53889;50.084;8.646;2022-09-16T04:13:41;5.68;;;1.50;;
54845;SDS011;53889;50.084;8.646;2022-09-16T04:16:08;3.80;;;1.45;;
54845;SDS011;53889;50.084;8.646;2022-09-16T04:18:35;4.38;;;1.23;;
54845;SDS011;53889;50.084;8.646;2022-09-16T04:21:02;6.07;;;1.40;;
54845;SDS011;53889;50.084;8.646;2022-09-16T04:23:30;7.93;;;1.50;;
54845;SDS011;53889;50.084;8.646;2022-09-16T04:25:59;4.45;;;1.17;;
54845;SDS011;53889;50.084;8.646;2022-09-16T04:28:27;7.07;;;1.60;;
54845;SDS011;53889;50.084;8.646;2022-09-16T04:30:58;7.03;;;1.55;;
54845;SDS011;53889;50.084;8.646;2022-09-16T04:33:27;3.97;;;1.35;;
54845;SDS011;53889;50.084;8.646;2022-09-16T04:36:00;3.35;;;1.40;;
54845;SDS011;53889;50.084;8.646;2022-09-16T04:38:27;5.32;;;1.67;;
54845;SDS011;53889;50.084;8.646;2022-09-16T04:40:59;4.93;;;1.70;;
54845;SDS011;53889;50.084;8.646;2022-09-16T04:43:26;7.47;;;1.65;;
54845;SDS011;53889;50.084;8.646;2022-09-16T04:45:53;6.80;;;3.58;;
54845;SDS011;53889;50.084;8.646;2022-09-16T04:48:19;7.43;;;1.55;;
54845;SDS011;53889;50.084;8.646;2022-09-16T04:50:46;5.60;;;1.40;;
54845;SDS011;53889;50.084;8.646;2022-09-16T04:53:13;5.97;;;1.60;;
54845;SDS011;53889;50.084;8.646;2022-09-16T04:55:39;4.93;;;1.40;;
54845;SDS011;53889;50.084;8.646;2022-09-16T04:58:07;5.03;;;1.45;;
54845;SDS011;53889;50.084;8.646;2022-09-16T05:00:35;6.35;;;1.48;;
54845;SDS011;53889;50.084;8.646;2022-09-16T05:03:02;6.38;;;1.30;;
54845;SDS011;53889;50.084;8.646;2022-09-16T05:05:29;4.97;;;1.30;;
54845;SDS011;53889;50.084;8.646;2022-09-16T05:07:56;4.47;;;1.17;;
54845;SDS011;53889;50.084;8.646;2022-09-16T05:10:22;4.80;;;1.20;;
54845;SDS011;53889;50.084;8.646;2022-09-16T05:12:49;4.90;;;1.60;;
54845;SDS011;53889;50.084;8.646;2022-09-16T05:15:18;6.63;;;1.40;;
54845;SDS011;53889;50.084;8.646;2022-09-16T05:17:45;3.58;;;1.38;;
54845;SDS011;53889;50.084;8.646;2022-09-16T05:20:12;6.30;;;1.27;;
54845;SDS011;53889;50.084;8.646;2022-09-16T05:22:39;5.85;;;2.17;;
54845;SDS011;53889;50.084;8.646;2022-09-16T05:25:06;5.28;;;1.60;;
54845;SDS011;53889;50.084;8.646;2022-09-16T05:27:34;6.90;;;1.52;;
54845;SDS011;53889;50.084;8.646;2022-09-16T05:30:01;5.07;;;2.05;;
54845;SDS011;53889;50.084;8.646;2022-09-16T05:32:29;6.15;;;1.88;;
54845;SDS011;53889;50.084;8.646;2022-09-16T05:34:57;6.50;;;2.00;;
54845;SDS011;53889;50.084;8.646;2022-09-16T05:37:23;7.15;;;1.80;;
54845;SDS011;53889;50.084;8.646;2022-09-16T05:39:50;5.50;;;1.70;;
54845;SDS011;53889;50.084;8.646;2022-09-16T05:42:17;5.35;;;1.98;;
54845;SDS011;53889;50.084;8.646;2022-09-16T05:44:43;6.30;;;1.98;;
54845;SDS011;53889;50.084;8.646;2022-09-16T05:47:10;5.10;;;1.95;;
54845;SDS011;53889;50.084;8.646;2022-09-16T05:49:38;5.68;;;1.92;;
54845;SDS011;53889;50.084;8.646;2022-09-16T05:52:05;5.22;;;1.70;;
54845;SDS011;53889;50.084;8.646;2022-09-16T05:54:31;5.72;;;2.25;;
54845;SDS011;53889;50.084;8.646;2022-09-16T05:56:58;5.68;;;2.47;;
54845;SDS011;53889;50.084;8.646;2022-09-16T05:59:25;9.75;;;2.10;;
54845;SDS011;53889;50.084;8.646;2022-09-16T06:01:51;5.60;;;1.70;;
54845;SDS011;53889;50.084;8.646;2022-09-16T06:04:18;6.90;;;2.00;;
54845;SDS011;53889;50.084;8.646;2022-09-16T06:06:46;6.50;;;1.80;;
54845;SDS011;53889;50.084;8.646;2022-09-16T06:09:14;5.03;;;1.52;;
54845;SDS011;53889;50.084;8.646;2022-09-16T06:11:43;6.88;;;2.10;;
54845;SDS011;53889;50.084;8.646;2022-09-16T06:14:11;7.60;;;2.40;;
54845;SDS011;53889;50.084;8.646;2022-09-16T06:16:38;10.43;;;6.68;;
54845;SDS011;53889;50.084;8.646;2022-09-16T06:19:05;5.13;;;1.75;;
54845;SDS011;53889;50.084;8.646;2022-09-16T06:21:35;5.78;;;1.63;;
54845;SDS011;53889;50.084;8.646;2022-09-16T06:24:03;4.50;;;1.42;;
54845;SDS011;53889;50.084;8.646;2022-09-16T06:26:33;7.10;;;1.80;;
54845;SDS011;53889;50.084;8.646;2022-09-16T06:29:00;8.50;;;1.90;;
54845;SDS011;53889;50.084;8.646;2022-09-16T06:31:27;4.85;;;1.60;;
54845;SDS011;53889;50.084;8.646;2022-09-16T06:33:54;4.63;;;1.58;;
54845;SDS011;53889;50.084;8.646;2022-09-16T06:36:23;5.22;;;1.50;;
54845;SDS011;53889;50.084;8.646;2022-09-16T06:38:51;5.90;;;1.75;;
54845;SDS011;53889;50.084;8.646;2022-09-16T06:41:20;4.93;;;1.60;;
54845;SDS011;53889;50.084;8.646;2022-09-16T06:43:47;4.35;;;1.70;;
54845;SDS011;53889;50.084;8.646;2022-09-16T06:46:16;5.07;;;1.65;;
54845;SDS011;53889;50.084;8.646;2022-09-16T06:48:45;6.53;;;1.90;;
54845;SDS011;53889;50.084;8.646;2022-09-16T06:51:14;5.75;;;1.80;;
54845;SDS011;53889;50.084;8.646;2022-09-16T06:53:42;6.38;;;1.95;;
54845;SDS011;53889;50.084;8.646;2022-09-16T06:56:10;5.57;;;1.60;;
54845;SDS011;53889;50.084;8.646;2022-09-16T06:58:40;4.28;;;1.50;;
54845;SDS011;53889;50.084;8.646;2022-09-16T07:01:09;7.18;;;1.90;;
54845;SDS011;53889;50.084;8.646;2022-09-16T07:03:37;7.22;;;2.08;;
54845;SDS011;53889;50.084;8.646;2022-09-16T07:06:05;7.15;;;1.40;;
54845;SDS011;53889;50.084;8.646;2022-09-16T07:08:33;7.93;;;1.55;;
54845;SDS011;53889;50.084;8.646;2022-09-16T07:11:02;10.52;;;1.90;;
54845;SDS011;53889;50.084;8.646;2022-09-16T07:13:30;5.90;;;1.42;;
54845;SDS011;53889;50.084;8.646;2022-09-16T07:15:59;3.78;;;1.40;;
54845;SDS011;53889;50.084;8.646;2022-09-16T07:18:26;6.53;;;1.20;;
54845;SDS011;53889;50.084;8.646;2022-09-16T07:20:59;5.60;;;1.33;;
54845;SDS011;53889;50.084;8.646;2022-09-16T07:23:27;5.95;;;1.48;;
54845;SDS011;53889;50.084;8.646;2022-09-16T07:25:58;6.43;;;1.52;;
54845;SDS011;53889;50.084;8.646;2022-09-16T07:28:26;7.65;;;2.13;;
54845;SDS011;53889;50.084;8.646;2022-09-16T07:30:52;4.65;;;1.30;;
54845;SDS011;53889;50.084;8.646;2022-09-16T07:33:20;5.13;;;1.33;;
54845;SDS011;53889;50.084;8.646;2022-09-16T07:35:47;7.72;;;1.60;;
54845;SDS011;53889;50.084;8.646;2022-09-16T07:38:14;5.28;;;1.67;;
54845;SDS011;53889;50.084;8.646;2022-09-16T07:40:40;4.40;;;1.42;;
54845;SDS011;53889;50.084;8.646;2022-09-16T07:43:07;5.22;;;1.27;;
54845;SDS011;53889;50.084;8.646;2022-09-16T07:45:34;5.13;;;1.50;;
54845;SDS011;53889;50.084;8.646;2022-09-16T07:48:01;3.92;;;1.00;;
54845;SDS011;53889;50.084;8.646;2022-09-16T07:50:29;4.07;;;1.20;;
54845;SDS011;53889;50.084;8.646;2022-09-16T07:52:55;5.47;;;1.20;;
54845;SDS011;53889;50.084;8.646;2022-09-16T07:55:22;5.60;;;1.15;;
54845;SDS011;53889;50.084;8.646;2022-09-16T07:57:49;5.20;;;1.05;;
54845;SDS011;53889;50.084;8.646;2022-09-16T08:00:16;3.75;;;1.00;;
54845;SDS011;53889;50.084;8.646;2022-09-16T08:02:42;5.35;;;1.27;;
54845;SDS011;53889;50.084;8.646;2022-09-16T08:05:09;5.47;;;1.30;;
54845;SDS011;53889;50.084;8.646;2022-09-16T08:07:38;5.68;;;1.70;;
54845;SDS011;53889;50.084;8.646;2022-09-16T08:10:05;5.63;;;1.27;;
54845;SDS011;53889;50.084;8.646;2022-09-16T08:12:32;6.03;;;1.67;;
54845;SDS011;53889;50.084;8.646;2022-09-16T08:14:59;6.00;;;1.60;;
54845;SDS011;53889;50.084;8.646;2022-09-16T08:17:26;4.40;;;1.40;;
54845;SDS011;53889;50.084;8.646;2022-09-16T08:19:53;5.65;;;1.30;;
54845;SDS011;53889;50.084;8.646;2022-09-16T08:22:20;3.85;;;1.23;;
54845;SDS011;53889;50.084;8.646;2022-09-16T08:24:51;5.22;;;1.20;;
54845;SDS011;53889;50.084;8.646;2022-09-16T08:27:17;3.72;;;1.10;;
54845;SDS011;53889;50.084;8.646;2022-09-16T08:29:44;13.43;;;6.80;;
54845;SDS011;53889;50.084;8.646;2022-09-16T08:32:11;7.25;;;3.40;;
54845;SDS011;53889;50.084;8.646;2022-09-16T08:34:38;13.02;;;7.90;;
54845;SDS011;53889;50.084;8.646;2022-09-16T08:37:05;9.55;;;6.95;;
54845;SDS011;53889;50.084;8.646;2022-09-16T08:39:32;16.35;;;12.80;;
54845;SDS011;53889;50.084;8.646;2022-09-16T08:42:04;7.25;;;4.05;;
54845;SDS011;53889;50.084;8.646;2022-09-16T08:44:56;3.42;;;1.40;;
54845;SDS011;53889;50.084;8.646;2022-09-16T08:47:34;6.07;;;2.50;;
54845;SDS011;53889;50.084;8.646;2022-09-16T08:52:40;4.32;;;1.60;;
54845;SDS011;53889;50.084;8.646;2022-09-16T08:55:09;5.15;;;1.20;;
54845;SDS011;53889;50.084;8.646;2022-09-16T08:57:41;5.43;;;1.70;;
54845;SDS011;53889;50.084;8.646;2022-09-16T09:00:13;5.05;;;1.20;;
54845;SDS011;53889;50.084;8.646;2022-09-16T09:02:45;3.92;;;1.00;;
54845;SDS011;53889;50.084;8.646;2022-09-16T09:05:17;3.75;;;1.33;;
54845;SDS011;53889;50.084;8.646;2022-09-16T09:07:52;3.88;;;1.10;;
54845;SDS011;53889;50.084;8.646;2022-09-16T09:10:31;3.58;;;1.20;;
54845;SDS011;53889;50.084;8.646;2022-09-16T09:13:11;3.83;;;1.00;;
54845;SDS011;53889;50.084;8.646;2022-09-16T09:15:51;2.05;;;0.80;;
54845;SDS011;53889;50.084;8.646;2022-09-16T09:18:27;4.28;;;1.20;;
54845;SDS011;53889;50.084;8.646;2022-09-16T09:21:08;3.80;;;1.10;;
54845;SDS011;53889;50.084;8.646;2022-09-16T09:23:47;3.65;;;1.00;;
54845;SDS011;53889;50.084;8.646;2022-09-16T09:26:20;3.45;;;0.98;;
54845;SDS011;53889;50.084;8.646;2022-09-16T09:29:02;3.65;;;0.88;;
54845;SDS011;53889;50.084;8.646;2022-09-16T09:31:47;3.70;;;1.20;;
54845;SDS011;53889;50.084;8.646;2022-09-16T09:34:25;4.63;;;1.00;;
54845;SDS011;53889;50.084;8.646;2022-09-16T09:37:04;2.97;;;0.73;;
54845;SDS011;53889;50.084;8.646;2022-09-16T09:39:48;4.97;;;1.08;;
54845;SDS011;53889;50.084;8.646;2022-09-16T09:42:25;7.70;;;1.60;;
54845;SDS011;53889;50.084;8.646;2022-09-16T09:44:57;4.38;;;0.95;;
54845;SDS011;53889;50.084;8.646;2022-09-16T09:47:29;6.28;;;1.00;;
54845;SDS011;53889;50.084;8.646;2022-09-16T09:50:02;4.55;;;1.00;;
54845;SDS011;53889;50.084;8.646;2022-09-16T09:52:38;4.68;;;0.90;;
54845;SDS011;53889;50.084;8.646;2022-09-16T09:55:12;5.15;;;1.30;;
54845;SDS011;53889;50.084;8.646;2022-09-16T09:57:43;3.20;;;0.90;;
54845;SDS011;53889;50.084;8.646;2022-09-16T10:00:22;3.10;;;0.95;;
54845;SDS011;53889;50.084;8.646;2022-09-16T10:02:48;4.93;;;0.80;;
54845;SDS011;53889;50.084;8.646;2022-09-16T10:05:18;2.70;;;0.80;;
54845;SDS011;53889;50.084;8.646;2022-09-16T10:07:47;2.47;;;0.93;;
54845;SDS011;53889;50.084;8.646;2022-09-16T10:10:16;5.57;;;1.33;;
54845;SDS011;53889;50.084;8.646;2022-09-16T10:12:46;2.67;;;0.90;;
54845;SDS011;53889;50.084;8.646;2022-09-16T10:15:19;3.90;;;1.05;;
54845;SDS011;53889;50.084;8.646;2022-09-16T10:17:49;4.63;;;1.20;;
54845;SDS011;53889;50.084;8.646;2022-09-16T10:20:20;4.30;;;1.80;;
54845;SDS011;53889;50.084;8.646;2022-09-16T10:22:53;3.70;;;0.90;;
54845;SDS011;53889;50.084;8.646;2022-09-16T10:25:23;4.00;;;1.08;;
54845;SDS011;53889;50.084;8.646;2022-09-16T10:27:53;3.45;;;0.80;;
54845;SDS011;53889;50.084;8.646;2022-09-16T10:30:21;4.65;;;1.17;;
54845;SDS011;53889;50.084;8.646;2022-09-16T10:32:49;5.30;;;0.90;;
54845;SDS011;53889;50.084;8.646;2022-09-16T10:35:21;2.55;;;0.70;;
54845;SDS011;53889;50.084;8.646;2022-09-16T10:37:51;2.28;;;0.80;;
54845;SDS011;53889;50.084;8.646;2022-09-16T10:40:19;5.10;;;0.80;;
54845;SDS011;53889;50.084;8.646;2022-09-16T10:42:48;3.88;;;1.10;;
54845;SDS011;53889;50.084;8.646;2022-09-16T10:45:20;4.95;;;1.00;;
54845;SDS011;53889;50.084;8.646;2022-09-16T10:47:52;3.28;;;0.75;;
54845;SDS011;53889;50.084;8.646;2022-09-16T10:50:21;2.67;;;0.80;;
54845;SDS011;53889;50.084;8.646;2022-09-16T10:52:48;3.35;;;0.80;;
54845;SDS011;53889;50.084;8.646;2022-09-16T10:55:19;3.38;;;0.90;;
54845;SDS011;53889;50.084;8.646;2022-09-16T10:57:51;4.07;;;1.00;;
54845;SDS011;53889;50.084;8.646;2022-09-16T11:00:19;4.30;;;1.10;;
54845;SDS011;53889;50.084;8.646;2022-09-16T11:05:45;4.00;;;1.00;;
54845;SDS011;53889;50.084;8.646;2022-09-16T11:08:22;3.47;;;1.05;;
54845;SDS011;53889;50.084;8.646;2022-09-16T11:11:00;5.88;;;1.17;;
54845;SDS011;53889;50.084;8.646;2022-09-16T11:13:36;2.85;;;0.80;;
54845;SDS011;53889;50.084;8.646;2022-09-16T11:16:16;3.35;;;0.80;;
54845;SDS011;53889;50.084;8.646;2022-09-16T11:19:10;3.22;;;0.70;;
54845;SDS011;53889;50.084;8.646;2022-09-16T11:21:56;3.72;;;0.80;;
54845;SDS011;53889;50.084;8.646;2022-09-16T11:24:46;2.08;;;0.75;;
54845;SDS011;53889;50.084;8.646;2022-09-16T11:27:25;2.97;;;0.90;;
54845;SDS011;53889;50.084;8.646;2022-09-16T11:30:06;3.08;;;0.85;;
54845;SDS011;53889;50.084;8.646;2022-09-16T11:32:44;3.15;;;1.20;;
54845;SDS011;53889;50.084;8.646;2022-09-16T11:35:28;3.08;;;0.80;;
54845;SDS011;53889;50.084;8.646;2022-09-16T11:38:04;3.63;;;0.73;;
54845;SDS011;53889;50.084;8.646;2022-09-16T11:40:50;3.97;;;1.00;;
54845;SDS011;53889;50.084;8.646;2022-09-16T11:43:35;5.47;;;1.38;;
54845;SDS011;53889;50.084;8.646;2022-09-16T11:46:10;2.97;;;0.82;;
54845;SDS011;53889;50.084;8.646;2022-09-16T11:48:51;3.03;;;0.82;;
54845;SDS011;53889;50.084;8.646;2022-09-16T11:51:29;2.88;;;0.75;;
54845;SDS011;53889;50.084;8.646;2022-09-16T11:54:18;3.20;;;0.90;;
54845;SDS011;53889;50.084;8.646;2022-09-16T11:56:56;2.25;;;0.70;;
54845;SDS011;53889;50.084;8.646;2022-09-16T11:59:25;2.15;;;0.50;;
54845;SDS011;53889;50.084;8.646;2022-09-16T12:01:57;2.35;;;0.80;;
54845;SDS011;53889;50.084;8.646;2022-09-16T12:04:27;3.33;;;0.70;;
54845;SDS011;53889;50.084;8.646;2022-09-16T12:07:01;3.35;;;0.80;;
54845;SDS011;53889;50.084;8.646;2022-09-16T12:09:33;3.13;;;0.70;;
54845;SDS011;53889;50.084;8.646;2022-09-16T12:12:07;3.50;;;1.00;;
54845;SDS011;53889;50.084;8.646;2022-09-16T12:14:39;2.65;;;1.10;;
54845;SDS011;53889;50.084;8.646;2022-09-16T12:17:10;3.45;;;1.45;;
54845;SDS011;53889;50.084;8.646;2022-09-16T12:19:44;5.43;;;2.40;;
54845;SDS011;53889;50.084;8.646;2022-09-16T12:22:17;6.07;;;2.00;;
54845;SDS011;53889;50.084;8.646;2022-09-16T12:24:48;4.55;;;1.75;;
54845;SDS011;53889;50.084;8.646;2022-09-16T12:27:31;5.97;;;2.30;;
54845;SDS011;53889;50.084;8.646;2022-09-16T12:30:04;4.57;;;1.27;;
54845;SDS011;53889;50.084;8.646;2022-09-16T12:32:41;3.10;;;1.10;;
54845;SDS011;53889;50.084;8.646;2022-09-16T12:35:14;3.13;;;0.82;;
54845;SDS011;53889;50.084;8.646;2022-09-16T12:37:47;3.28;;;1.23;;
54845;SDS011;53889;50.084;8.646;2022-09-16T12:40:16;2.38;;;0.90;;
54845;SDS011;53889;50.084;8.646;2022-09-16T12:43:00;3.53;;;1.02;;
54845;SDS011;53889;50.084;8.646;2022-09-16T12:45:50;2.13;;;1.00;;
54845;SDS011;53889;50.084;8.646;2022-09-16T12:48:45;2.85;;;1.05;;
54845;SDS011;53889;50.084;8.646;2022-09-16T12:51:30;1.52;;;1.00;;
54845;SDS011;53889;50.084;8.646;2022-09-16T12:54:17;2.13;;;1.10;;
54845;SDS011;53889;50.084;8.646;2022-09-16T12:57:19;2.95;;;1.00;;
54845;SDS011;53889;50.084;8.646;2022-09-16T13:00:02;5.20;;;1.10;;
54845;SDS011;53889;50.084;8.646;2022-09-16T13:02:42;4.40;;;1.05;;
54845;SDS011;53889;50.084;8.646;2022-09-16T13:05:16;5.25;;;1.27;;
54845;SDS011;53889;50.084;8.646;2022-09-16T13:07:47;4.20;;;0.95;;
54845;SDS011;53889;50.084;8.646;2022-09-16T13:10:22;4.35;;;1.35;;
54845;SDS011;53889;50.084;8.646;2022-09-16T13:12:56;3.10;;;1.00;;
54845;SDS011;53889;50.084;8.646;2022-09-16T13:15:26;3.10;;;0.80;;
54845;SDS011;53889;50.084;8.646;2022-09-16T13:17:54;3.45;;;1.02;;
54845;SDS011;53889;50.084;8.646;2022-09-16T13:20:33;2.08;;;0.85;;
54845;SDS011;53889;50.084;8.646;2022-09-16T13:23:04;3.88;;;0.98;;
54845;SDS011;53889;50.084;8.646;2022-09-16T13:25:42;2.13;;;0.90;;
54845;SDS011;53889;50.084;8.646;2022-09-16T13:28:21;3.75;;;1.17;;
54845;SDS011;53889;50.084;8.646;2022-09-16T13:30:52;3.25;;;0.80;;
54845;SDS011;53889;50.084;8.646;2022-09-16T13:33:23;2.83;;;0.80;;
54845;SDS011;53889;50.084;8.646;2022-09-16T13:36:03;3.08;;;0.95;;
54845;SDS011;53889;50.084;8.646;2022-09-16T13:38:40;2.55;;;0.70;;
54845;SDS011;53889;50.084;8.646;2022-09-16T13:41:10;3.20;;;0.82;;
54845;SDS011;53889;50.084;8.646;2022-09-16T13:43:48;2.88;;;0.63;;
54845;SDS011;53889;50.084;8.646;2022-09-16T13:46:28;2.58;;;0.70;;
54845;SDS011;53889;50.084;8.646;2022-09-16T13:48:58;1.83;;;0.75;;
54845;SDS011;53889;50.084;8.646;2022-09-16T13:51:37;1.48;;;0.52;;
54845;SDS011;53889;50.084;8.646;2022-09-16T13:54:13;1.80;;;0.80;;
54845;SDS011;53889;50.084;8.646;2022-09-16T13:59:53;2.80;;;0.68;;
54845;SDS011;53889;50.084;8.646;2022-09-16T14:02:56;1.60;;;0.65;;
54845;SDS011;53889;50.084;8.646;2022-09-16T14:05:58;0.82;;;0.40;;
54845;SDS011;53889;50.084;8.646;2022-09-16T14:08:40;1.67;;;0.55;;
54845;SDS011;53889;50.084;8.646;2022-09-16T14:11:14;1.27;;;0.57;;
54845;SDS011;53889;50.084;8.646;2022-09-16T14:13:48;3.00;;;0.93;;
54845;SDS011;53889;50.084;8.646;2022-09-16T14:16:19;7.60;;;1.08;;
54845;SDS011;53889;50.084;8.646;2022-09-16T14:18:50;2.22;;;0.70;;
54845;SDS011;53889;50.084;8.646;2022-09-16T14:21:22;6.10;;;1.27;;
54845;SDS011;53889;50.084;8.646;2022-09-16T14:23:50;5.63;;;1.35;;
54845;SDS011;53889;50.084;8.646;2022-09-16T14:26:18;3.38;;;1.20;;
54845;SDS011;53889;50.084;8.646;2022-09-16T14:28:48;4.55;;;1.08;;
54845;SDS011;53889;50.084;8.646;2022-09-16T14:31:15;4.32;;;1.00;;
54845;SDS011;53889;50.084;8.646;2022-09-16T14:33:45;3.65;;;0.90;;
54845;SDS011;53889;50.084;8.646;2022-09-16T14:36:17;5.82;;;1.20;;
54845;SDS011;53889;50.084;8.646;2022-09-16T14:38:46;4.32;;;1.00;;
54845;SDS011;53889;50.084;8.646;2022-09-16T14:41:17;3.53;;;1.00;;
54845;SDS011;53889;50.084;8.646;2022-09-16T14:43:49;4.15;;;1.13;;
54845;SDS011;53889;50.084;8.646;2022-09-16T14:46:17;2.97;;;1.10;;
54845;SDS011;53889;50.084;8.646;2022-09-16T14:48:45;4.85;;;1.13;;
54845;SDS011;53889;50.084;8.646;2022-09-16T14:51:14;4.80;;;1.10;;
54845;SDS011;53889;50.084;8.646;2022-09-16T14:53:52;5.00;;;1.33;;
54845;SDS011;53889;50.084;8.646;2022-09-16T14:56:21;3.80;;;1.20;;
54845;SDS011;53889;50.084;8.646;2022-09-16T14:58:49;3.45;;;1.15;;
54845;SDS011;53889;50.084;8.646;2022-09-16T15:01:17;4.40;;;1.20;;
54845;SDS011;53889;50.084;8.646;2022-09-16T15:03:49;2.55;;;1.00;;
54845;SDS011;53889;50.084;8.646;2022-09-16T15:06:19;4.40;;;1.70;;
54845;SDS011;53889;50.084;8.646;2022-09-16T15:08:48;4.20;;;1.60;;
54845;SDS011;53889;50.084;8.646;2022-09-16T15:11:20;3.88;;;1.20;;
54845;SDS011;53889;50.084;8.646;2022-09-16T15:13:51;3.20;;;0.90;;
54845;SDS011;53889;50.084;8.646;2022-09-16T15:16:19;4.72;;;1.00;;
54845;SDS011;53889;50.084;8.646;2022-09-16T15:18:51;3.47;;;1.20;;
54845;SDS011;53889;50.084;8.646;2022-09-16T15:21:21;5.93;;;1.30;;
54845;SDS011;53889;50.084;8.646;2022-09-16T15:23:51;3.47;;;1.10;;
54845;SDS011;53889;50.084;8.646;2022-09-16T15:26:20;2.38;;;0.65;;
54845;SDS011;53889;50.084;8.646;2022-09-16T15:28:53;1.63;;;0.60;;